Time;durP1;ratioP1;P1;durP2;ratioP2;P2;SDS_P1;SDS_P2;PMS_P1;PMS_P2;Temp;Humidity;BMP_temperature;BMP_pressure;BME280_temperature;BME280_humidity;BME280_pressure;Samples;Min_cycle;Max_cycle;Signal;HPM_P1;HPM_P2
2022/11/30 00:01:28;;;;;;;43.03;19.58;;;;;;;7.41;100.00;102146.38;4927779;28;20044;-72
2022/11/30 00:03:56;;;;;;;40.47;20.90;;;;;;;7.42;100.00;102145.50;4929625;28;20119;-72
2022/11/30 00:06:25;;;;;;;40.60;20.10;;;;;;;7.41;100.00;102136.75;4928870;28;20577;-73
2022/11/30 00:08:57;;;;;;;41.67;20.52;;;;;;;7.41;100.00;102139.34;4920677;28;20053;-73
2022/11/30 00:11:27;;;;;;;40.47;20.38;;;;;;;7.42;100.00;102137.63;4922554;29;20064;-73
2022/11/30 00:13:55;;;;;;;39.45;20.02;;;;;;;7.42;100.00;102142.88;4931695;28;20045;-72
2022/11/30 00:16:22;;;;;;;36.58;20.00;;;;;;;7.41;99.91;102147.22;4929508;28;20044;-71
2022/11/30 00:18:50;;;;;;;40.80;20.25;;;;;;;7.39;100.00;102148.97;4930521;29;20545;-71
2022/11/30 00:21:17;;;;;;;38.42;20.73;;;;;;;7.37;100.00;102139.34;4933331;28;20048;-71
2022/11/30 00:23:47;;;;;;;37.35;20.83;;;;;;;7.38;100.00;102143.72;4926306;28;20795;-71
2022/11/30 00:26:21;;;;;;;30.17;19.33;;;;;;;7.38;99.12;102141.09;4929354;28;20060;-71
2022/11/30 00:28:49;;;;;;;34.83;18.65;;;;;;;7.35;97.56;102139.34;4922562;29;20079;-70
2022/11/30 00:31:18;;;;;;;30.10;18.10;;;;;;;7.34;96.32;102142.84;4932895;28;20119;-71
2022/11/30 00:33:46;;;;;;;28.08;18.77;;;;;;;7.30;95.41;102138.44;4929017;28;20048;-71
2022/11/30 00:36:19;;;;;;;26.60;18.38;;;;;;;7.27;95.22;102141.06;4923370;29;20041;-70
2022/11/30 00:38:48;;;;;;;28.38;18.38;;;;;;;7.21;95.02;102139.28;4933128;28;20044;-71
2022/11/30 00:41:18;;;;;;;29.00;18.48;;;;;;;7.16;95.21;102143.63;4929457;28;20091;-71
2022/11/30 00:43:45;;;;;;;31.13;19.38;;;;;;;7.14;95.38;102143.63;4931132;28;20047;-71
2022/11/30 00:46:13;;;;;;;28.42;18.75;;;;;;;7.11;95.58;102146.22;4922300;28;20048;-72
2022/11/30 00:48:41;;;;;;;31.13;19.58;;;;;;;7.10;95.08;102147.09;4933103;28;20506;-72
2022/11/30 00:51:11;;;;;;;28.98;18.88;;;;;;;7.08;94.99;102148.81;4925786;29;20602;-72
2022/11/30 00:53:40;;;;;;;31.50;19.40;;;;;;;7.02;95.26;102150.56;4929607;28;20040;-72
2022/11/30 00:56:08;;;;;;;29.05;18.52;;;;;;;6.99;95.49;102140.91;4930817;28;20529;-72
2022/11/30 00:58:35;;;;;;;28.83;18.60;;;;;;;6.97;95.76;102146.16;4933195;28;20040;-72
2022/11/30 01:01:02;;;;;;;31.10;19.40;;;;;;;7.00;94.93;102142.66;4930559;28;20048;-73
2022/11/30 01:03:29;;;;;;;30.50;18.88;;;;;;;6.96;95.44;102148.78;4938440;28;20041;-72
2022/11/30 01:06:08;;;;;;;32.00;20.15;;;;;;;6.95;95.44;102147.03;4928883;29;20050;-72
2022/11/30 01:08:35;;;;;;;33.15;20.38;;;;;;;6.96;95.79;102154.88;4933175;28;20048;-72
2022/11/30 01:11:19;;;;;;;31.58;19.08;;;;;;;6.93;95.88;102147.00;4928566;28;20163;-72
2022/11/30 01:13:46;;;;;;;30.83;19.55;;;;;;;6.95;95.95;102161.00;4932350;28;20055;-73
2022/11/30 01:16:18;;;;;;;34.55;19.85;;;;;;;6.94;96.02;102161.88;4932431;28;20040;-73
2022/11/30 01:18:47;;;;;;;32.95;18.70;;;;;;;6.97;95.64;102168.88;4924703;28;20578;-73
2022/11/30 01:21:18;;;;;;;32.17;19.50;;;;;;;6.97;95.77;102168.88;4921327;28;20049;-72
2022/11/30 01:23:46;;;;;;;30.50;20.30;;;;;;;6.97;96.05;102169.75;4931547;28;20040;-71
2022/11/30 01:26:14;;;;;;;33.30;20.27;;;;;;;6.99;96.39;102181.13;4931264;28;20044;-71
2022/11/30 01:28:53;;;;;;;34.20;20.35;;;;;;;7.05;95.57;102184.66;4930460;28;20046;-72
2022/11/30 01:31:23;;;;;;;32.72;20.77;;;;;;;6.99;95.67;102186.38;4927426;29;20410;-72
2022/11/30 01:33:54;;;;;;;32.35;19.92;;;;;;;6.98;95.91;102186.34;4921553;28;20504;-71
2022/11/30 01:36:24;;;;;;;31.35;20.25;;;;;;;6.96;95.68;102181.09;4925443;29;20048;-72
2022/11/30 01:38:56;;;;;;;33.38;20.20;;;;;;;6.98;96.17;102188.97;4932195;29;20044;-71
2022/11/30 01:41:29;;;;;;;32.97;21.13;;;;;;;6.95;96.07;102175.88;4919058;28;20060;-71
2022/11/30 01:44:17;;;;;;;33.00;20.75;;;;;;;6.94;96.22;102176.72;4918497;29;20973;-71
2022/11/30 01:46:59;;;;;;;34.47;20.40;;;;;;;6.92;96.03;102174.09;4920169;28;20067;-71
2022/11/30 01:49:34;;;;;;;36.20;21.50;;;;;;;6.93;95.64;102182.84;4932138;28;20119;-71
2022/11/30 01:52:08;;;;;;;33.38;20.52;;;;;;;6.89;96.03;102181.06;4931243;28;20044;-72
2022/11/30 01:54:47;;;;;;;;;;;;;;;6.84;96.12;102181.03;4927145;28;20052;-73
2022/11/30 01:57:27;;;;;;;35.45;21.35;;;;;;;6.84;96.16;102181.91;4931295;28;20388;-73
2022/11/30 02:00:09;;;;;;;33.78;21.42;;;;;;;6.84;96.51;102178.41;4924112;29;20095;-73
2022/11/30 02:03:27;;;;;;;36.92;20.75;;;;;;;6.84;96.73;102179.28;4920695;28;20541;-72
2022/11/30 02:05:56;;;;;;;34.80;21.20;;;;;;;6.84;96.84;102176.69;4929950;29;20119;-73
2022/11/30 02:08:24;;;;;;;32.78;20.55;;;;;;;6.83;96.85;102185.41;4917528;29;20067;-73
2022/11/30 02:10:58;;;;;;;37.67;21.77;;;;;;;6.83;96.70;102182.78;4928638;28;20136;-74
2022/11/30 02:13:51;;;;;;;35.47;21.98;;;;;;;6.84;96.91;102181.91;4926903;28;20063;-74
2022/11/30 02:16:36;;;;;;;37.38;21.25;;;;;;;6.82;96.77;102183.66;4917958;29;20493;-74
2022/11/30 02:19:13;;;;;;;35.35;21.00;;;;;;;6.82;97.09;102193.25;4927983;29;20052;-73
2022/11/30 02:22:02;;;;;;;35.35;21.10;;;;;;;6.79;96.85;102181.00;4924982;28;20036;-73
2022/11/30 02:24:42;;;;;;;36.20;22.33;;;;;;;6.80;97.10;102188.00;4925896;28;20048;-73
2022/11/30 02:28:06;;;;;;;36.90;20.73;;;;;;;6.79;96.98;102181.00;4919267;29;20045;-73
2022/11/30 02:30:41;;;;;;;37.08;21.73;;;;;;;6.80;97.11;102187.13;4928800;29;20775;-73
2022/11/30 02:33:26;;;;;;;34.42;21.10;;;;;;;6.78;97.35;102186.25;4917005;28;20048;-73
2022/11/30 02:35:56;;;;;;;33.30;21.05;;;;;;;6.76;97.09;102188.84;4919618;29;20048;-74
2022/11/30 02:38:26;;;;;;;32.67;20.52;;;;;;;6.76;96.84;102185.34;4921844;29;20041;-72
2022/11/30 02:40:54;;;;;;;35.10;22.25;;;;;;;6.78;97.17;102191.47;4923431;29;20441;-72
2022/11/30 02:43:26;;;;;;;35.10;21.42;;;;;;;6.79;96.98;102193.25;4928727;28;20556;-70
2022/11/30 02:46:36;;;;;;;38.72;22.02;;;;;;;6.79;97.16;102198.47;4920395;29;20048;-71
2022/11/30 02:49:21;;;;;;;37.65;21.98;;;;;;;6.76;97.14;102188.84;4920313;29;20092;-71
2022/11/30 02:51:50;;;;;;;34.95;20.98;;;;;;;6.74;97.16;102192.31;4917594;29;20048;-72
2022/11/30 02:54:18;;;;;;;35.10;21.52;;;;;;;6.75;97.21;102191.44;4918849;29;20059;-73
2022/11/30 02:56:46;;;;;;;38.58;22.85;;;;;;;6.74;96.88;102192.31;4931553;28;20072;-73
2022/11/30 02:59:14;;;;;;;40.50;22.48;;;;;;;6.73;97.04;102187.94;4924674;28;20049;-73
2022/11/30 03:01:41;;;;;;;37.15;22.00;;;;;;;6.71;97.04;102193.16;4921855;28;20040;-71
2022/11/30 03:04:08;;;;;;;38.60;22.88;;;;;;;6.70;96.91;102195.78;4924396;28;20045;-71
2022/11/30 03:06:35;;;;;;;35.55;21.77;;;;;;;6.69;96.85;102197.53;4936043;28;20494;-70
2022/11/30 03:09:03;;;;;;;37.30;22.55;;;;;;;6.68;96.72;102201.00;4942973;28;20060;-70
2022/11/30 03:11:30;;;;;;;39.17;22.42;;;;;;;6.68;96.64;102199.28;4937402;29;20048;-71
2022/11/30 03:13:57;;;;;;;42.22;23.42;;;;;;;6.67;96.63;102199.25;4929809;28;20047;-71
2022/11/30 03:16:24;;;;;;;38.63;22.23;;;;;;;6.66;96.58;102197.53;4930969;29;20152;-72
2022/11/30 03:18:51;;;;;;;38.38;22.13;;;;;;;6.64;96.81;102194.00;4929476;28;20495;-72
2022/11/30 03:21:18;;;;;;;38.13;21.08;;;;;;;6.63;96.64;102195.72;4928750;29;20044;-72
2022/11/30 03:23:45;;;;;;;35.95;21.90;;;;;;;6.64;96.44;102194.88;4933831;28;20502;-72
2022/11/30 03:26:12;;;;;;;37.58;22.10;;;;;;;6.65;96.69;102204.47;4932174;28;20044;-72
2022/11/30 03:28:39;;;;;;;39.08;22.00;;;;;;;6.64;96.67;102207.09;4931017;28;20663;-74
2022/11/30 03:31:11;;;;;;;40.72;21.15;;;;;;;6.64;96.52;102207.09;4926673;28;20052;-74
2022/11/30 03:33:41;;;;;;;37.55;22.75;;;;;;;6.62;96.61;102200.97;4924642;28;20582;-74
2022/11/30 03:36:11;;;;;;;44.97;22.33;;;;;;;6.61;96.72;102200.09;4929670;28;20036;-74
2022/11/30 03:38:38;;;;;;;37.85;21.58;;;;;;;6.61;96.94;102196.59;4916158;29;20049;-72
2022/11/30 03:41:15;;;;;;;39.15;22.17;;;;;;;6.62;97.16;102203.59;4915288;29;20061;-72
2022/11/30 03:43:44;;;;;;;36.28;21.38;;;;;;;6.60;96.78;102200.06;4923161;29;20052;-72
2022/11/30 03:46:13;;;;;;;38.08;22.40;;;;;;;6.59;97.02;102203.56;4927844;28;20048;-72
2022/11/30 03:48:43;;;;;;;34.25;21.00;;;;;;;6.57;96.77;102202.66;4931635;29;20449;-73
2022/11/30 03:51:12;;;;;;;37.30;22.23;;;;;;;6.55;96.79;102202.66;4933487;29;20037;-72
2022/11/30 03:53:39;;;;;;;38.42;22.05;;;;;;;6.53;96.77;102205.28;4925791;28;20894;-71
2022/11/30 03:56:09;;;;;;;37.20;21.23;;;;;;;6.53;96.88;102199.13;4929561;29;20136;-71
2022/11/30 03:58:37;;;;;;;39.13;22.20;;;;;;;6.52;96.77;102210.47;4934312;28;20267;-72
2022/11/30 04:01:12;;;;;;;36.35;21.40;;;;;;;6.52;97.00;102207.84;4923460;28;20040;-70
2022/11/30 04:03:40;;;;;;;40.80;22.48;;;;;;;6.50;96.96;102215.72;4931108;28;20072;-71
2022/11/30 04:06:10;;;;;;;40.38;21.65;;;;;;;6.48;96.98;102217.44;4932337;28;20164;-70
2022/11/30 04:08:38;;;;;;;37.03;22.13;;;;;;;6.45;96.95;102216.53;4923544;29;20043;-71
2022/11/30 04:11:06;;;;;;;36.97;21.85;;;;;;;6.42;96.89;102221.75;4932069;28;20054;-71
2022/11/30 04:13:36;;;;;;;39.20;23.60;;;;;;;6.37;96.93;102219.97;4932645;28;20048;-71
2022/11/30 04:16:04;;;;;;;37.00;21.45;;;;;;;6.30;97.01;102217.28;4931536;28;20048;-71
2022/11/30 04:18:35;;;;;;;39.03;22.05;;;;;;;6.27;97.19;102209.38;4915826;28;20842;-71
2022/11/30 04:21:04;;;;;;;37.90;21.77;;;;;;;6.21;97.17;102215.44;4920434;29;20104;-71
2022/11/30 04:23:35;;;;;;;38.45;21.88;;;;;;;6.15;97.25;102218.91;4932603;28;20047;-71
2022/11/30 04:26:07;;;;;;;39.65;22.20;;;;;;;6.08;97.19;102208.34;4926885;28;20049;-71
2022/11/30 04:28:35;;;;;;;38.25;22.40;;;;;;;6.01;97.41;102207.41;4926173;28;20052;-71
2022/11/30 04:31:03;;;;;;;37.88;21.73;;;;;;;5.95;97.77;102210.78;4932884;28;20044;-71
2022/11/30 04:33:30;;;;;;;39.13;22.23;;;;;;;5.88;97.61;102215.06;4930126;28;20132;-71
2022/11/30 04:36:01;;;;;;;43.38;22.65;;;;;;;5.82;97.45;102217.63;4922878;28;20518;-71
2022/11/30 04:38:30;;;;;;;41.08;22.88;;;;;;;5.75;97.50;102214.06;4925110;28;20264;-70
2022/11/30 04:40:58;;;;;;;38.58;23.00;;;;;;;5.70;97.71;102213.13;4927373;29;20104;-70
2022/11/30 04:43:25;;;;;;;43.50;22.17;;;;;;;5.64;97.57;102213.06;4932998;29;20041;-70
2022/11/30 04:45:52;;;;;;;40.22;23.35;;;;;;;5.60;97.62;102206.00;4932925;28;20040;-70
2022/11/30 04:48:20;;;;;;;42.97;24.17;;;;;;;5.53;97.66;102206.81;4930378;28;20055;-70
2022/11/30 04:50:47;;;;;;;42.90;22.88;;;;;;;5.44;97.46;102211.06;4925927;28;20056;-70
2022/11/30 04:53:14;;;;;;;45.22;23.15;;;;;;;5.37;97.63;102206.63;4920698;29;20388;-70
2022/11/30 04:55:41;;;;;;;42.35;21.90;;;;;;;5.31;97.48;102205.66;4933085;29;20063;-69
2022/11/30 04:58:08;;;;;;;43.67;22.73;;;;;;;5.25;97.73;102211.69;4920046;28;20491;-69
2022/11/30 05:00:36;;;;;;;45.15;23.00;;;;;;;5.17;97.69;102201.09;4929644;28;20519;-69
2022/11/30 05:03:03;;;;;;;48.53;24.05;;;;;;;5.10;97.62;102210.59;4918618;29;20071;-69
2022/11/30 05:05:30;;;;;;;41.00;21.35;;;;;;;5.05;97.80;102211.38;4920280;29;20039;-69
2022/11/30 05:07:59;;;;;;;44.60;22.83;;;;;;;4.97;97.83;102206.94;4924667;28;20138;-69
2022/11/30 05:10:28;;;;;;;43.25;22.95;;;;;;;4.90;97.71;102210.31;4926431;28;20105;-72
2022/11/30 05:12:56;;;;;;;42.40;22.25;;;;;;;4.81;97.61;102210.19;4927590;29;20479;-72
2022/11/30 05:15:23;;;;;;;40.33;21.67;;;;;;;4.73;97.65;102212.66;4917671;29;20479;-71
2022/11/30 05:17:50;;;;;;;45.50;22.58;;;;;;;4.64;97.79;102210.75;4919335;28;20091;-71
2022/11/30 05:20:17;;;;;;;48.13;22.55;;;;;;;4.57;97.73;102214.13;4914319;29;20056;-72
2022/11/30 05:22:44;;;;;;;41.35;20.58;;;;;;;4.48;97.58;102216.59;4926135;29;20041;-72
2022/11/30 05:25:11;;;;;;;50.60;23.48;;;;;;;4.43;97.78;102221.75;4925106;28;20776;-72
2022/11/30 05:27:39;;;;;;;43.03;22.00;;;;;;;4.40;97.97;102226.03;4930535;28;20051;-73
2022/11/30 05:30:07;;;;;;;46.90;23.67;;;;;;;4.34;98.17;102226.81;4932973;28;20080;-73
2022/11/30 05:32:34;;;;;;;39.70;20.60;;;;;;;4.31;98.29;102224.13;4934524;28;20048;-71
2022/11/30 05:35:01;;;;;;;43.28;21.92;;;;;;;4.27;98.21;102227.56;4940484;28;20056;-72
2022/11/30 05:37:28;;;;;;;48.88;22.48;;;;;;;4.27;98.31;102238.88;4930376;28;20051;-72
2022/11/30 05:39:55;;;;;;;50.55;23.13;;;;;;;4.27;98.73;102227.56;4931163;28;20060;-73
2022/11/30 05:42:22;;;;;;;47.30;21.83;;;;;;;4.25;98.89;102230.13;4927172;28;20092;-71
2022/11/30 05:44:50;;;;;;;52.63;23.27;;;;;;;4.21;98.74;102236.16;4938017;28;20047;-71
2022/11/30 05:47:18;;;;;;;45.83;21.55;;;;;;;4.19;98.78;102240.47;4935109;28;20087;-71
2022/11/30 05:49:45;;;;;;;45.08;22.23;;;;;;;4.15;98.55;102247.38;4938810;28;20091;-71
2022/11/30 05:52:12;;;;;;;49.95;21.85;;;;;;;4.09;98.66;102234.19;4941687;28;20047;-71
2022/11/30 05:54:39;;;;;;;56.03;23.65;;;;;;;4.10;98.86;102242.91;4937433;28;20095;-71
2022/11/30 05:57:06;;;;;;;49.65;23.58;;;;;;;4.10;99.01;102242.91;4942082;28;20079;-71
2022/11/30 05:59:33;;;;;;;58.72;25.65;;;;;;;4.12;99.30;102243.81;4924163;28;20044;-70
2022/11/30 06:02:01;;;;;;;51.17;22.92;;;;;;;4.16;99.59;102237.78;4931868;28;20112;-70
2022/11/30 06:04:29;;;;;;;43.55;21.23;;;;;;;4.14;99.55;102243.00;4937068;28;20056;-70
2022/11/30 06:06:56;;;;;;;55.90;23.83;;;;;;;4.12;99.35;102243.81;4939687;28;20051;-70
2022/11/30 06:09:23;;;;;;;54.60;24.02;;;;;;;4.12;99.71;102251.66;4938998;28;20047;-70
2022/11/30 06:11:52;;;;;;;54.30;22.20;;;;;;;4.14;99.80;102255.16;4940316;28;20043;-70
2022/11/30 06:14:19;;;;;;;51.40;21.98;;;;;;;4.10;99.64;102254.22;4939793;28;20087;-71
2022/11/30 06:16:46;;;;;;;45.08;20.75;;;;;;;4.10;99.78;102256.81;4938006;28;20043;-70
2022/11/30 06:19:14;;;;;;;48.33;21.58;;;;;;;4.08;99.66;102252.44;4934040;28;20574;-70
2022/11/30 06:21:41;;;;;;;39.67;19.52;;;;;;;4.00;99.47;102247.06;4925837;28;20151;-69
2022/11/30 06:24:09;;;;;;;38.25;18.65;;;;;;;3.92;99.34;102256.47;4933322;28;20037;-70
2022/11/30 06:26:37;;;;;;;41.63;20.40;;;;;;;3.87;99.16;102253.75;4942743;28;20051;-70
2022/11/30 06:29:04;;;;;;;38.35;18.70;;;;;;;3.82;99.33;102258.88;4938165;28;20049;-70
2022/11/30 06:31:31;;;;;;;37.70;18.48;;;;;;;3.76;99.28;102261.38;4931149;28;20044;-70
2022/11/30 06:33:58;;;;;;;37.65;19.38;;;;;;;3.71;99.32;102266.47;4938783;28;20078;-70
2022/11/30 06:36:26;;;;;;;36.88;19.52;;;;;;;3.65;99.12;102260.28;4940340;28;20040;-70
2022/11/30 06:39:01;;;;;;;45.75;21.08;;;;;;;3.60;99.33;102267.09;4942821;28;20573;-70
2022/11/30 06:41:29;;;;;;;36.95;18.65;;;;;;;3.57;99.18;102267.94;4938752;28;20058;-70
2022/11/30 06:43:57;;;;;;;44.63;21.10;;;;;;;3.53;99.50;102266.09;4928807;28;20856;-70
2022/11/30 06:46:25;;;;;;;41.60;18.65;;;;;;;3.49;99.50;102275.56;4948339;28;20051;-70
2022/11/30 06:48:52;;;;;;;45.40;19.52;;;;;;;3.46;99.44;102269.41;4948014;28;20047;-70
2022/11/30 06:51:19;;;;;;;43.45;19.40;;;;;;;3.42;99.50;102281.50;4937129;28;20043;-70
2022/11/30 06:53:47;;;;;;;44.45;20.42;;;;;;;3.38;99.44;102277.97;4954151;28;20514;-70
2022/11/30 06:56:14;;;;;;;38.90;19.33;;;;;;;3.35;99.73;102283.09;4949580;28;20048;-70
2022/11/30 06:58:41;;;;;;;39.13;19.08;;;;;;;3.33;99.57;102278.69;4947180;28;20040;-70
2022/11/30 07:01:15;;;;;;;47.38;20.20;;;;;;;3.29;99.67;102285.56;4939841;28;20052;-70
2022/11/30 07:03:43;;;;;;;54.40;21.83;;;;;;;3.25;99.47;102287.22;4933672;28;20132;-70
2022/11/30 07:06:13;;;;;;;70.60;23.58;;;;;;;3.22;99.75;102284.53;4934513;28;20044;-71
2022/11/30 07:08:41;;;;;;;47.58;20.85;;;;;;;3.18;99.46;102287.03;4936109;28;20052;-71
2022/11/30 07:11:11;;;;;;;41.15;20.02;;;;;;;3.15;99.51;102292.19;4931442;28;20051;-71
2022/11/30 07:13:38;;;;;;;48.92;21.60;;;;;;;3.11;99.55;102299.03;4924674;29;20052;-70
2022/11/30 07:16:10;;;;;;;42.72;20.50;;;;;;;3.08;99.31;102301.56;4935578;28;20737;-70
2022/11/30 07:18:37;;;;;;;51.88;21.95;;;;;;;3.07;99.58;102303.31;4935869;28;20047;-70
2022/11/30 07:21:05;;;;;;;85.50;23.77;;;;;;;3.10;99.68;102315.53;4936240;28;20048;-70
2022/11/30 07:26:24;;;;;;;74.47;24.17;;;;;;;3.36;100.00;102320.47;4935672;28;20087;-69
2022/11/30 07:28:57;;;;;;;94.55;25.33;;;;;;;3.45;100.00;102320.69;4935793;28;20047;-70
2022/11/30 07:31:32;;;;;;;65.57;24.02;;;;;;;3.55;100.00;102317.47;4935408;28;20108;-70
2022/11/30 07:34:06;;;;;;;251.18;32.22;;;;;;;3.65;100.00;102321.13;4934935;28;20067;-70
2022/11/30 07:36:35;;;;;;;71.85;25.10;;;;;;;3.75;100.00;102323.94;4935523;29;20055;-70
2022/11/30 07:39:03;;;;;;;51.55;21.85;;;;;;;3.84;100.00;102329.34;4935203;28;20051;-70
2022/11/30 07:41:30;;;;;;;57.03;23.98;;;;;;;3.95;100.00;102330.47;4950165;28;20056;-70
2022/11/30 07:44:04;;;;;;;49.88;22.98;;;;;;;4.05;100.00;102336.78;4934455;28;20048;-70
2022/11/30 07:46:34;;;;;;;52.10;22.65;;;;;;;4.11;100.00;102330.81;4934501;28;20051;-70
2022/11/30 07:49:04;;;;;;;48.15;22.40;;;;;;;4.17;100.00;102331.78;4935244;28;20059;-70
2022/11/30 07:51:32;;;;;;;46.25;22.05;;;;;;;4.26;100.00;102325.88;4935348;28;20593;-70
2022/11/30 07:53:59;;;;;;;44.55;21.67;;;;;;;4.33;100.00;102330.34;4934236;28;20043;-69
2022/11/30 07:56:28;;;;;;;44.55;21.85;;;;;;;4.41;100.00;102330.50;4935108;28;20096;-70
2022/11/30 07:59:00;;;;;;;41.53;20.27;;;;;;;4.49;100.00;102341.97;4935087;28;20070;-70
2022/11/30 08:01:31;;;;;;;44.95;21.92;;;;;;;4.56;100.00;102342.13;4935069;28;20048;-70
2022/11/30 08:03:59;;;;;;;38.55;19.95;;;;;;;4.59;100.00;102347.38;4934760;28;20532;-70
2022/11/30 08:06:29;;;;;;;42.25;20.83;;;;;;;4.63;100.00;102344.84;4935315;28;20495;-70
2022/11/30 08:09:00;;;;;;;46.17;21.92;;;;;;;4.71;100.00;102344.13;4935044;28;20071;-70
2022/11/30 08:11:32;;;;;;;41.63;21.38;;;;;;;4.79;100.00;102350.38;4935033;28;20053;-70
2022/11/30 08:14:02;;;;;;;41.85;22.55;;;;;;;4.82;100.00;102358.28;4934355;28;20477;-70
2022/11/30 08:16:34;;;;;;;45.25;21.90;;;;;;;4.88;100.00;102350.53;4934420;28;20040;-70
2022/11/30 08:19:02;;;;;;;48.20;22.35;;;;;;;4.94;100.00;102354.97;4934599;28;20518;-70
2022/11/30 08:21:31;;;;;;;40.13;21.30;;;;;;;4.99;100.00;102358.53;4934653;28;20052;-70
2022/11/30 08:23:59;;;;;;;41.20;22.05;;;;;;;5.05;100.00;102357.75;4933558;28;20052;-70
2022/11/30 08:26:33;;;;;;;36.55;19.85;;;;;;;5.15;100.00;102362.28;4934956;28;20052;-70
2022/11/30 08:29:01;;;;;;;41.53;21.37;;;;;;;5.20;100.00;102367.59;4934912;28;20048;-70
2022/11/30 08:31:31;;;;;;;38.67;21.17;;;;;;;5.26;100.00;102360.75;4934113;28;20048;-70
2022/11/30 08:34:09;;;;;;;38.60;21.02;;;;;;;5.32;100.00;102366.94;4932961;28;20052;-69
2022/11/30 08:36:39;;;;;;;40.03;20.92;;;;;;;5.36;99.83;102361.78;4934316;28;20076;-70
2022/11/30 08:39:10;;;;;;;39.03;22.15;;;;;;;5.42;99.58;102371.47;4934442;28;20074;-70
2022/11/30 08:41:38;;;;;;;39.97;20.95;;;;;;;5.44;99.19;102360.16;4933429;28;20044;-70
2022/11/30 08:44:06;;;;;;;40.42;20.83;;;;;;;5.47;99.09;102356.69;4933717;28;20104;-70
2022/11/30 08:46:33;;;;;;;40.63;21.35;;;;;;;5.50;98.87;102364.59;4934419;28;20096;-70
2022/11/30 08:49:19;;;;;;;39.30;21.10;;;;;;;5.57;98.85;102361.22;4934546;28;20143;-70
2022/11/30 08:52:06;;;;;;;39.92;21.98;;;;;;;5.66;98.63;102370.06;4934504;28;20139;-70
2022/11/30 08:54:45;;;;;;;37.45;20.88;;;;;;;5.70;98.85;102374.50;4936936;28;20040;-69
2022/11/30 08:57:16;;;;;;;39.90;21.27;;;;;;;5.79;99.19;102374.63;4939593;28;20059;-69
2022/11/30 08:59:44;;;;;;;39.95;21.88;;;;;;;5.89;99.34;102375.63;4936484;28;20051;-70
2022/11/30 09:02:17;;;;;;;42.92;23.35;;;;;;;5.98;99.53;102382.72;4928035;29;20091;-68
2022/11/30 09:04:47;;;;;;;44.00;24.05;;;;;;;6.06;99.37;102376.78;4928817;28;20550;-67
2022/11/30 09:07:15;;;;;;;36.90;22.05;;;;;;;6.13;99.32;102376.84;4926760;29;20051;-68
2022/11/30 09:09:42;;;;;;;40.13;22.70;;;;;;;6.18;99.21;102376.03;4918712;28;20049;-68
2022/11/30 09:12:10;;;;;;;37.90;21.33;;;;;;;6.24;99.06;102371.75;4914896;29;20041;-68
2022/11/30 09:14:37;;;;;;;38.47;22.02;;;;;;;6.28;98.66;102381.38;4931763;29;20104;-68
2022/11/30 09:17:04;;;;;;;36.65;20.83;;;;;;;6.29;98.71;102393.63;4927948;28;20056;-68
2022/11/30 09:19:31;;;;;;;35.70;21.45;;;;;;;6.29;98.33;102388.38;4923666;29;20630;-68
2022/11/30 09:21:59;;;;;;;41.25;22.45;;;;;;;6.30;98.54;102383.19;4932269;28;20585;-68
2022/11/30 09:24:26;;;;;;;39.53;20.42;;;;;;;6.31;98.30;102387.53;4934130;28;20582;-67
2022/11/30 09:26:56;;;;;;;35.83;19.83;;;;;;;6.35;98.11;102396.34;4925728;28;20048;-67
2022/11/30 09:29:23;;;;;;;37.28;20.95;;;;;;;6.36;97.96;102392.84;4922448;29;20059;-68
2022/11/30 09:31:50;;;;;;;34.88;19.73;;;;;;;6.41;97.95;102398.16;4931603;28;20080;-68
2022/11/30 09:34:17;;;;;;;34.33;19.77;;;;;;;6.43;97.74;102399.94;4932209;28;20071;-68
2022/11/30 09:36:44;;;;;;;35.80;21.20;;;;;;;6.46;97.46;102396.44;4914660;29;20044;-68
2022/11/30 09:39:12;;;;;;;37.00;20.88;;;;;;;6.51;97.13;102397.41;4919730;29;20079;-68
2022/11/30 09:41:57;;;;;;;37.83;21.23;;;;;;;6.51;96.85;102394.78;4932137;28;20060;-67
2022/11/30 09:44:58;;;;;;;41.55;22.05;;;;;;;6.61;97.08;102406.22;4933132;28;20040;-68
2022/11/30 09:47:53;;;;;;;40.03;21.80;;;;;;;6.64;96.74;102393.16;4916575;29;20128;-67
2022/11/30 09:50:25;;;;;;;38.05;21.98;;;;;;;6.70;96.27;102395.84;4929222;29;20048;-68
2022/11/30 09:53:02;;;;;;;41.65;22.83;;;;;;;6.74;95.91;102388.88;4933287;28;20049;-68
2022/11/30 09:55:39;;;;;;;41.50;21.83;;;;;;;6.81;95.84;102390.72;4923653;28;20054;-67
2022/11/30 09:58:28;;;;;;;40.35;22.10;;;;;;;6.85;95.70;102384.63;4931695;28;20124;-68
2022/11/30 10:00:55;;;;;;;37.67;21.67;;;;;;;6.89;95.32;102390.78;4923735;28;20127;-68
2022/11/30 10:03:23;;;;;;;35.67;20.90;;;;;;;6.93;94.98;102387.34;4929626;28;20040;-68
2022/11/30 10:06:17;;;;;;;36.72;21.02;;;;;;;6.96;94.61;102380.38;4918940;29;20049;-67
2022/11/30 10:09:22;;;;;;;33.90;20.75;;;;;;;6.98;94.30;102385.63;4932126;28;20541;-69
2022/11/30 10:11:59;;;;;;;42.00;21.70;;;;;;;6.94;94.31;102386.47;4933274;28;20051;-69
2022/11/30 10:15:08;;;;;;;39.00;21.85;;;;;;;6.99;94.41;102383.03;4933677;28;20100;-70
2022/11/30 10:17:54;;;;;;;38.90;21.50;;;;;;;7.01;93.89;102375.19;4932689;28;20044;-69
2022/11/30 10:20:57;;;;;;;38.03;20.98;;;;;;;6.95;93.84;102372.50;4933314;28;20048;-70
2022/11/30 10:23:36;;;;;;;36.13;20.85;;;;;;;6.90;92.56;102379.44;4933471;28;20040;-70
2022/11/30 10:26:10;;;;;;;37.75;21.13;;;;;;;6.81;93.03;102369.75;4936329;28;20048;-69
2022/11/30 10:28:53;;;;;;;37.80;20.65;;;;;;;6.84;92.55;102375.91;4935760;28;20061;-69
2022/11/30 10:31:37;;;;;;;41.83;22.42;;;;;;;6.84;93.08;102368.03;4936615;28;20100;-70
2022/11/30 10:34:20;;;;;;;38.92;21.38;;;;;;;6.89;92.84;102369.81;4936553;28;20613;-69
2022/11/30 10:37:09;;;;;;;38.42;21.00;;;;;;;6.90;92.38;102364.59;4936496;28;20075;-69
2022/11/30 10:39:47;;;;;;;35.65;19.55;;;;;;;6.99;91.66;102367.31;4935766;28;20888;-70
2022/11/30 10:42:37;;;;;;;32.28;19.17;;;;;;;7.10;91.81;102366.53;4936678;29;20044;-69
2022/11/30 10:45:19;;;;;;;31.67;17.80;;;;;;;7.23;90.81;102365.75;4936478;28;20503;-70
2022/11/30 10:48:11;;;;;;;30.20;17.17;;;;;;;7.30;90.17;102366.66;4935788;28;20091;-69
2022/11/30 10:50:39;;;;;;;29.02;17.33;;;;;;;7.30;89.55;102361.44;4950646;28;20841;-70
2022/11/30 10:53:11;;;;;;;33.75;18.20;;;;;;;7.26;89.62;102357.91;4936181;29;20044;-69
2022/11/30 10:55:49;;;;;;;29.52;17.48;;;;;;;7.20;89.56;102363.13;4935240;28;20056;-69
2022/11/30 10:58:27;;;;;;;28.90;16.67;;;;;;;7.09;89.57;102355.13;4934111;28;20123;-69
2022/11/30 11:01:09;;;;;;;27.55;17.00;;;;;;;7.14;88.61;102363.03;4927607;28;20045;-70
2022/11/30 11:03:37;;;;;;;29.83;17.65;;;;;;;7.14;88.50;102352.56;4917900;29;20048;-69
2022/11/30 11:06:22;;;;;;;29.23;17.17;;;;;;;7.22;89.07;102361.38;4933909;29;20040;-69
2022/11/30 11:08:50;;;;;;;29.65;18.30;;;;;;;7.39;89.35;102347.50;4934818;28;20056;-69
2022/11/30 11:11:37;;;;;;;27.90;16.90;;;;;;;7.56;88.88;102361.63;4930841;28;20052;-69
2022/11/30 11:14:20;;;;;;;30.13;16.77;;;;;;;7.65;88.41;102350.31;4927148;29;20162;-69
2022/11/30 11:17:24;;;;;;;29.53;16.63;;;;;;;7.71;88.03;102347.72;4931910;29;20047;-69
2022/11/30 11:19:51;;;;;;;25.58;14.50;;;;;;;7.78;86.38;102356.50;4930901;28;20040;-69
2022/11/30 11:22:25;;;;;;;27.13;14.52;;;;;;;7.78;86.43;102346.00;4934705;28;20044;-69
2022/11/30 11:25:19;;;;;;;30.35;15.82;;;;;;;7.73;86.18;102353.00;4922438;28;20049;-69
2022/11/30 11:28:01;;;;;;;25.33;15.13;;;;;;;7.79;85.64;102355.63;4917888;29;20072;-70
2022/11/30 11:30:31;;;;;;;26.17;15.05;;;;;;;7.77;85.09;102358.25;4922527;29;20044;-69
2022/11/30 11:33:11;;;;;;;24.83;14.88;;;;;;;7.76;85.58;102358.22;4926010;28;20055;-70
2022/11/30 11:35:49;;;;;;;22.75;14.43;;;;;;;7.70;85.76;102358.22;4915695;29;20053;-70
2022/11/30 11:38:42;;;;;;;25.77;14.32;;;;;;;7.54;85.37;102367.72;4920399;29;20056;-70
2022/11/30 11:41:37;;;;;;;22.77;13.85;;;;;;;7.54;84.61;102362.47;4928160;29;20071;-70
2022/11/30 11:44:08;;;;;;;;;;;;;;;7.55;84.26;102366.88;4930530;28;20052;-70